KFVE

Details ICAO KFVE (WFK)
Name NORTHERN AROOSTOOK RGNL
Region United States
Timezone America/New_York (UTC-4.0)
Plans Departing 5
Arriving 9
Stats Elevation 988 ft / 301 m (AMSL)
Location 47.285504° -68.312735°
Runways 1
Magnetic Variation 17.070° W
Sunrise 2018-05-23 08:49:34 UTC / 2018-05-23 04:49:34 Local
Sunset 2018-05-24 00:13:19 UTC / 2018-05-23 20:13:19 Local
Advertisement - Login to hide

Runways

ID Width Length Bearing (true) Bearing (mag) Surface Threshold Offset Overrun Length
14 75 ft / 23 m 4,591 ft / 1,399 m 115.59° 132.66° Asphalt 0 ft / 0 m 0 ft / 0 m
32 75 ft / 23 m 4,591 ft / 1,399 m 295.61° 312.68° Asphalt 0 ft / 0 m 0 ft / 0 m

Map

Weather


0- 5 10 15 20 25 30 35+ Temperature / ° C

Clouds and Precipitation
Forecast for 2018-05-23 12:00 UTC. Updated 2 hours ago

Ground ~20,000 ft ~40,000 ft Winds

METAR

KFVE 231253Z AUTO 30007KT 9SM -RA BKN008 OVC014 13/10 A2979 RMK AO2 RAB40 CIG 006V011 SLP085 P0000 T01280100

TAF

KFVE 231136Z 2312/2412 34005KT P6SM OVC020 FM231400 36006KT 5SM -SHRA OVC018 TEMPO 2314/2316 3SM -SHRA OVC008 FM231700 36007KT P6SM VCSH BKN022 FM231900 36007KT P6SM SCT040

Frequencies

Recorded 135.72 MHz ASOS
Unicom 122.80 MHz CTAF/UNICOM
Warning: Do not use this data for real-world aviation or navigation. No guarantee of current accuracy is given.